sensor_id;sensor_type;location;lat;lon;timestamp;pressure;altitude;pressure_sealevel;temperature;humidity
76124;BME280;65173;48.066;20.976;2023-03-01T00:02:37;101575.25;;;2.01;65.47
76124;BME280;65173;48.066;20.976;2023-03-01T00:05:46;101576.03;;;2.02;65.64
76124;BME280;65173;48.066;20.976;2023-03-01T00:08:50;101572.00;;;1.88;66.33
76124;BME280;65173;48.066;20.976;2023-03-01T00:11:53;101560.91;;;1.86;66.32
76124;BME280;65173;48.066;20.976;2023-03-01T00:14:56;101553.91;;;1.80;66.56
76124;BME280;65173;48.066;20.976;2023-03-01T00:17:59;101565.22;;;1.80;66.59
76124;BME280;65173;48.066;20.976;2023-03-01T00:21:02;101558.59;;;1.78;66.59
76124;BME280;65173;48.066;20.976;2023-03-01T00:24:06;101559.91;;;1.68;66.74
76124;BME280;65173;48.066;20.976;2023-03-01T00:27:08;101566.94;;;1.74;66.36
76124;BME280;65173;48.066;20.976;2023-03-01T00:30:13;101557.88;;;1.70;67.01
76124;BME280;65173;48.066;20.976;2023-03-01T00:33:16;101556.94;;;1.65;67.43
76124;BME280;65173;48.066;20.976;2023-03-01T00:36:19;101562.78;;;1.67;67.84
76124;BME280;65173;48.066;20.976;2023-03-01T00:39:23;101549.94;;;1.59;67.77
76124;BME280;65173;48.066;20.976;2023-03-01T00:42:26;101551.69;;;1.47;68.09
76124;BME280;65173;48.066;20.976;2023-03-01T00:45:29;101559.69;;;1.40;68.04
76124;BME280;65173;48.066;20.976;2023-03-01T00:48:34;101545.00;;;1.32;68.01
76124;BME280;65173;48.066;20.976;2023-03-01T00:51:37;101545.75;;;1.21;68.72
76124;BME280;65173;48.066;20.976;2023-03-01T00:54:41;101541.31;;;1.03;69.03
76124;BME280;65173;48.066;20.976;2023-03-01T00:57:44;101540.56;;;0.96;69.44
76124;BME280;65173;48.066;20.976;2023-03-01T01:00:48;101540.50;;;0.85;69.90
76124;BME280;65173;48.066;20.976;2023-03-01T01:03:56;101534.91;;;0.75;70.05
76124;BME280;65173;48.066;20.976;2023-03-01T01:06:59;101538.78;;;0.72;70.05
76124;BME280;65173;48.066;20.976;2023-03-01T01:10:03;101541.28;;;0.67;70.48
76124;BME280;65173;48.066;20.976;2023-03-01T01:13:06;101541.91;;;0.62;70.18
76124;BME280;65173;48.066;20.976;2023-03-01T01:16:09;101539.63;;;0.48;70.70
76124;BME280;65173;48.066;20.976;2023-03-01T01:19:13;101541.69;;;0.39;71.19
76124;BME280;65173;48.066;20.976;2023-03-01T01:22:16;101538.94;;;0.34;71.39
76124;BME280;65173;48.066;20.976;2023-03-01T01:25:19;101540.75;;;0.33;71.18
76124;BME280;65173;48.066;20.976;2023-03-01T01:28:22;101542.38;;;0.34;71.02
76124;BME280;65173;48.066;20.976;2023-03-01T01:31:25;101535.75;;;0.25;71.24
76124;BME280;65173;48.066;20.976;2023-03-01T01:34:29;101526.06;;;0.26;71.35
76124;BME280;65173;48.066;20.976;2023-03-01T01:37:31;101533.31;;;0.30;71.28
76124;BME280;65173;48.066;20.976;2023-03-01T01:40:43;101531.94;;;0.21;71.56
76124;BME280;65173;48.066;20.976;2023-03-01T01:44:12;101528.53;;;0.21;71.46
76124;BME280;65173;48.066;20.976;2023-03-01T01:47:18;101528.22;;;0.11;71.73
76124;BME280;65173;48.066;20.976;2023-03-01T01:50:24;101527.44;;;0.04;71.95
76124;BME280;65173;48.066;20.976;2023-03-01T01:53:28;101524.28;;;-0.05;72.23
76124;BME280;65173;48.066;20.976;2023-03-01T01:56:31;101521.28;;;-0.09;72.22
76124;BME280;65173;48.066;20.976;2023-03-01T01:59:36;101511.81;;;-0.10;72.52
76124;BME280;65173;48.066;20.976;2023-03-01T02:02:40;101515.44;;;-0.11;72.84
76124;BME280;65173;48.066;20.976;2023-03-01T02:08:59;101515.00;;;-0.01;72.17
76124;BME280;65173;48.066;20.976;2023-03-01T02:12:04;101515.94;;;0.05;72.26
76124;BME280;65173;48.066;20.976;2023-03-01T02:15:08;101516.38;;;0.02;71.91
76124;BME280;65173;48.066;20.976;2023-03-01T02:18:14;101514.75;;;0.00;71.94
76124;BME280;65173;48.066;20.976;2023-03-01T02:22:07;101515.75;;;0.06;71.69
76124;BME280;65173;48.066;20.976;2023-03-01T02:25:07;101509.38;;;-0.05;71.67
76124;BME280;65173;48.066;20.976;2023-03-01T02:31:20;101503.25;;;0.02;71.19
76124;BME280;65173;48.066;20.976;2023-03-01T02:34:42;101499.72;;;-0.11;71.22
76124;BME280;65173;48.066;20.976;2023-03-01T02:37:46;101503.78;;;-0.15;70.96
76124;BME280;65173;48.066;20.976;2023-03-01T02:40:50;101501.34;;;-0.10;70.81
76124;BME280;65173;48.066;20.976;2023-03-01T02:43:54;101511.63;;;-0.15;70.74
76124;BME280;65173;48.066;20.976;2023-03-01T02:47:02;101506.03;;;-0.18;70.94
76124;BME280;65173;48.066;20.976;2023-03-01T02:56:44;101496.81;;;-0.27;71.00
76124;BME280;65173;48.066;20.976;2023-03-01T02:59:48;101500.25;;;-0.27;70.58
76124;BME280;65173;48.066;20.976;2023-03-01T03:02:53;101501.53;;;-0.36;70.79
76124;BME280;65173;48.066;20.976;2023-03-01T03:05:58;101507.59;;;-0.42;71.17
76124;BME280;65173;48.066;20.976;2023-03-01T03:09:02;101515.44;;;-0.42;71.07
76124;BME280;65173;48.066;20.976;2023-03-01T03:12:05;101531.16;;;-0.42;70.86
76124;BME280;65173;48.066;20.976;2023-03-01T03:15:10;101522.50;;;-0.43;70.90
76124;BME280;65173;48.066;20.976;2023-03-01T03:18:16;101526.31;;;-0.39;70.63
76124;BME280;65173;48.066;20.976;2023-03-01T03:21:20;101523.72;;;-0.45;70.71
76124;BME280;65173;48.066;20.976;2023-03-01T03:24:22;101516.88;;;-0.46;70.79
76124;BME280;65173;48.066;20.976;2023-03-01T03:27:25;101520.69;;;-0.42;70.57
76124;BME280;65173;48.066;20.976;2023-03-01T03:30:31;101519.25;;;-0.38;70.29
76124;BME280;65173;48.066;20.976;2023-03-01T03:33:34;101515.63;;;-0.37;70.23
76124;BME280;65173;48.066;20.976;2023-03-01T03:36:37;101523.09;;;-0.41;70.43
76124;BME280;65173;48.066;20.976;2023-03-01T03:39:40;101526.91;;;-0.37;70.22
76124;BME280;65173;48.066;20.976;2023-03-01T03:42:43;101522.50;;;-0.43;70.58
76124;BME280;65173;48.066;20.976;2023-03-01T03:45:47;101525.91;;;-0.42;70.51
76124;BME280;65173;48.066;20.976;2023-03-01T03:48:49;101536.00;;;-0.46;70.56
76124;BME280;65173;48.066;20.976;2023-03-01T03:51:53;101533.34;;;-0.39;70.72
76124;BME280;65173;48.066;20.976;2023-03-01T03:54:59;101536.13;;;-0.34;70.32
76124;BME280;65173;48.066;20.976;2023-03-01T03:58:02;101528.47;;;-0.29;70.17
76124;BME280;65173;48.066;20.976;2023-03-01T04:01:09;101527.53;;;-0.10;70.18
76124;BME280;65173;48.066;20.976;2023-03-01T04:04:12;101533.28;;;0.06;69.56
76124;BME280;65173;48.066;20.976;2023-03-01T04:07:16;101530.63;;;0.12;68.85
76124;BME280;65173;48.066;20.976;2023-03-01T04:10:19;101537.41;;;0.20;68.45
76124;BME280;65173;48.066;20.976;2023-03-01T04:13:24;101540.81;;;0.20;68.62
76124;BME280;65173;48.066;20.976;2023-03-01T04:16:28;101542.81;;;0.25;68.39
76124;BME280;65173;48.066;20.976;2023-03-01T04:19:31;101542.41;;;0.28;67.88
76124;BME280;65173;48.066;20.976;2023-03-01T04:22:39;101539.28;;;0.38;67.63
76124;BME280;65173;48.066;20.976;2023-03-01T04:25:47;101529.00;;;0.36;67.97
76124;BME280;65173;48.066;20.976;2023-03-01T04:28:56;101514.06;;;0.37;67.74
76124;BME280;65173;48.066;20.976;2023-03-01T04:31:59;101518.31;;;0.38;67.66
76124;BME280;65173;48.066;20.976;2023-03-01T04:35:02;101522.50;;;0.45;67.59
76124;BME280;65173;48.066;20.976;2023-03-01T04:38:05;101524.25;;;0.51;67.69
76124;BME280;65173;48.066;20.976;2023-03-01T04:41:11;101522.78;;;0.55;67.28
76124;BME280;65173;48.066;20.976;2023-03-01T04:44:13;101512.66;;;0.59;67.43
76124;BME280;65173;48.066;20.976;2023-03-01T04:47:17;101513.47;;;0.59;67.14
76124;BME280;65173;48.066;20.976;2023-03-01T04:50:20;101515.25;;;0.65;66.78
76124;BME280;65173;48.066;20.976;2023-03-01T04:53:24;101504.38;;;0.62;66.86
76124;BME280;65173;48.066;20.976;2023-03-01T04:56:28;101494.69;;;0.62;66.77
76124;BME280;65173;48.066;20.976;2023-03-01T04:59:31;101495.44;;;0.69;66.83
76124;BME280;65173;48.066;20.976;2023-03-01T05:02:35;101493.03;;;0.68;66.93
76124;BME280;65173;48.066;20.976;2023-03-01T05:05:38;101491.41;;;0.67;67.42
76124;BME280;65173;48.066;20.976;2023-03-01T05:08:41;101486.31;;;0.72;67.22
76124;BME280;65173;48.066;20.976;2023-03-01T05:11:45;101490.47;;;0.80;66.62
76124;BME280;65173;48.066;20.976;2023-03-01T05:14:48;101489.63;;;0.86;65.82
76124;BME280;65173;48.066;20.976;2023-03-01T05:17:51;101498.88;;;0.88;65.60
76124;BME280;65173;48.066;20.976;2023-03-01T05:20:56;101496.69;;;0.85;66.22
76124;BME280;65173;48.066;20.976;2023-03-01T05:24:04;101508.09;;;0.91;65.64
76124;BME280;65173;48.066;20.976;2023-03-01T05:27:07;101508.09;;;0.91;65.88
76124;BME280;65173;48.066;20.976;2023-03-01T05:30:10;101498.19;;;0.93;65.68
76124;BME280;65173;48.066;20.976;2023-03-01T05:33:18;101501.63;;;0.93;66.23
76124;BME280;65173;48.066;20.976;2023-03-01T05:36:21;101504.47;;;0.92;65.69
76124;BME280;65173;48.066;20.976;2023-03-01T05:39:25;101502.84;;;0.91;65.91
76124;BME280;65173;48.066;20.976;2023-03-01T05:42:29;101517.16;;;0.95;65.45
76124;BME280;65173;48.066;20.976;2023-03-01T05:45:32;101512.28;;;0.98;65.45
76124;BME280;65173;48.066;20.976;2023-03-01T05:48:38;101509.88;;;0.97;65.57
76124;BME280;65173;48.066;20.976;2023-03-01T05:51:42;101510.59;;;1.04;65.37
76124;BME280;65173;48.066;20.976;2023-03-01T05:54:45;101506.16;;;1.04;65.18
76124;BME280;65173;48.066;20.976;2023-03-01T05:57:48;101501.25;;;1.08;64.77
76124;BME280;65173;48.066;20.976;2023-03-01T06:00:53;101498.56;;;1.15;65.05
76124;BME280;65173;48.066;20.976;2023-03-01T06:03:58;101496.09;;;1.20;64.74
76124;BME280;65173;48.066;20.976;2023-03-01T06:07:01;101498.59;;;1.26;64.96
76124;BME280;65173;48.066;20.976;2023-03-01T06:10:04;101501.31;;;1.38;64.57
76124;BME280;65173;48.066;20.976;2023-03-01T06:13:08;101500.97;;;1.46;64.85
76124;BME280;65173;48.066;20.976;2023-03-01T06:16:11;101507.78;;;1.54;64.44
76124;BME280;65173;48.066;20.976;2023-03-01T06:19:14;101496.50;;;1.65;63.78
76124;BME280;65173;48.066;20.976;2023-03-01T06:22:17;101493.34;;;1.74;63.06
76124;BME280;65173;48.066;20.976;2023-03-01T06:25:22;101499.28;;;1.82;63.35
76124;BME280;65173;48.066;20.976;2023-03-01T06:28:25;101501.38;;;1.91;63.27
76124;BME280;65173;48.066;20.976;2023-03-01T06:31:28;101505.84;;;2.02;62.24
76124;BME280;65173;48.066;20.976;2023-03-01T06:34:31;101498.31;;;2.18;61.91
76124;BME280;65173;48.066;20.976;2023-03-01T06:37:34;101505.00;;;2.32;61.76
76124;BME280;65173;48.066;20.976;2023-03-01T06:40:41;101496.28;;;2.43;61.69
76124;BME280;65173;48.066;20.976;2023-03-01T06:43:43;101491.50;;;2.63;60.41
76124;BME280;65173;48.066;20.976;2023-03-01T06:46:46;101484.72;;;2.79;59.60
76124;BME280;65173;48.066;20.976;2023-03-01T06:49:49;101496.69;;;2.98;59.26
76124;BME280;65173;48.066;20.976;2023-03-01T06:52:56;101491.50;;;3.15;58.57
76124;BME280;65173;48.066;20.976;2023-03-01T06:55:59;101488.84;;;4.72;55.56
76124;BME280;65173;48.066;20.976;2023-03-01T06:59:04;101477.88;;;4.08;55.14
76124;BME280;65173;48.066;20.976;2023-03-01T07:02:10;101482.25;;;3.86;56.47
76124;BME280;65173;48.066;20.976;2023-03-01T07:05:14;101489.22;;;3.75;57.26
76124;BME280;65173;48.066;20.976;2023-03-01T07:08:17;101488.41;;;3.75;56.90
76124;BME280;65173;48.066;20.976;2023-03-01T07:11:21;101499.19;;;3.73;56.56
76124;BME280;65173;48.066;20.976;2023-03-01T07:14:25;101491.06;;;3.75;57.46
76124;BME280;65173;48.066;20.976;2023-03-01T07:17:29;101483.06;;;3.87;56.92
76124;BME280;65173;48.066;20.976;2023-03-01T07:20:32;101492.72;;;3.81;56.55
76124;BME280;65173;48.066;20.976;2023-03-01T07:23:35;101487.78;;;4.01;56.01
76124;BME280;65173;48.066;20.976;2023-03-01T07:26:37;101493.84;;;4.35;54.79
76124;BME280;65173;48.066;20.976;2023-03-01T07:29:40;101492.22;;;4.51;55.15
76124;BME280;65173;48.066;20.976;2023-03-01T07:32:43;101486.19;;;4.34;54.03
76124;BME280;65173;48.066;20.976;2023-03-01T07:35:48;101486.16;;;4.50;54.34
76124;BME280;65173;48.066;20.976;2023-03-01T07:38:51;101483.34;;;4.57;53.15
76124;BME280;65173;48.066;20.976;2023-03-01T07:41:54;101478.75;;;4.69;52.55
76124;BME280;65173;48.066;20.976;2023-03-01T07:44:57;101486.38;;;4.87;52.66
76124;BME280;65173;48.066;20.976;2023-03-01T07:48:00;101485.84;;;4.85;51.37
76124;BME280;65173;48.066;20.976;2023-03-01T07:51:05;101480.78;;;5.28;52.44
76124;BME280;65173;48.066;20.976;2023-03-01T07:54:08;101476.34;;;5.55;50.74
76124;BME280;65173;48.066;20.976;2023-03-01T07:57:11;101476.13;;;5.62;50.39
76124;BME280;65173;48.066;20.976;2023-03-01T08:00:14;101473.84;;;5.75;49.50
76124;BME280;65173;48.066;20.976;2023-03-01T08:03:18;101472.00;;;5.71;49.32
76124;BME280;65173;48.066;20.976;2023-03-01T08:06:21;101475.38;;;5.66;49.14
76124;BME280;65173;48.066;20.976;2023-03-01T08:09:24;101472.66;;;6.20;49.15
76124;BME280;65173;48.066;20.976;2023-03-01T08:12:26;101479.31;;;6.27;47.82
76124;BME280;65173;48.066;20.976;2023-03-01T08:15:30;101475.47;;;6.45;47.88
76124;BME280;65173;48.066;20.976;2023-03-01T08:18:33;101483.00;;;6.63;48.12
76124;BME280;65173;48.066;20.976;2023-03-01T08:21:36;101477.09;;;6.51;47.37
76124;BME280;65173;48.066;20.976;2023-03-01T08:24:39;101473.19;;;6.64;46.96
76124;BME280;65173;48.066;20.976;2023-03-01T08:27:42;101478.09;;;6.03;48.32
76124;BME280;65173;48.066;20.976;2023-03-01T08:30:46;101473.06;;;6.39;47.04
76124;BME280;65173;48.066;20.976;2023-03-01T08:33:50;101474.91;;;6.80;47.94
76124;BME280;65173;48.066;20.976;2023-03-01T08:36:57;101471.13;;;7.44;45.87
76124;BME280;65173;48.066;20.976;2023-03-01T08:40:01;101467.41;;;7.45;45.79
76124;BME280;65173;48.066;20.976;2023-03-01T08:43:04;101466.09;;;7.52;44.76
76124;BME280;65173;48.066;20.976;2023-03-01T08:46:07;101473.00;;;7.48;44.80
76124;BME280;65173;48.066;20.976;2023-03-01T08:49:15;101459.22;;;8.07;45.00
76124;BME280;65173;48.066;20.976;2023-03-01T08:52:19;101454.13;;;8.46;43.47
76124;BME280;65173;48.066;20.976;2023-03-01T08:55:22;101455.00;;;9.06;42.84
76124;BME280;65173;48.066;20.976;2023-03-01T08:58:25;101452.94;;;9.37;41.78
76124;BME280;65173;48.066;20.976;2023-03-01T09:01:28;101447.34;;;8.89;41.54
76124;BME280;65173;48.066;20.976;2023-03-01T09:04:31;101452.03;;;9.57;40.15
76124;BME280;65173;48.066;20.976;2023-03-01T09:07:35;101444.25;;;9.21;40.83
76124;BME280;65173;48.066;20.976;2023-03-01T09:10:38;101451.25;;;9.51;40.51
76124;BME280;65173;48.066;20.976;2023-03-01T09:13:42;101439.66;;;10.82;38.40
76124;BME280;65173;48.066;20.976;2023-03-01T09:16:45;101447.41;;;11.77;35.56
76124;BME280;65173;48.066;20.976;2023-03-01T09:19:49;101439.19;;;10.98;36.33
76124;BME280;65173;48.066;20.976;2023-03-01T09:22:52;101437.84;;;11.90;36.70
76124;BME280;65173;48.066;20.976;2023-03-01T09:25:54;101433.31;;;13.13;35.05
76124;BME280;65173;48.066;20.976;2023-03-01T09:28:57;101426.44;;;12.30;34.28
76124;BME280;65173;48.066;20.976;2023-03-01T09:32:00;101433.59;;;13.26;35.00
76124;BME280;65173;48.066;20.976;2023-03-01T09:35:03;101418.91;;;12.87;34.27
76124;BME280;65173;48.066;20.976;2023-03-01T09:38:07;101431.38;;;12.78;34.06
76124;BME280;65173;48.066;20.976;2023-03-01T09:47:30;101424.28;;;13.09;32.89
76124;BME280;65173;48.066;20.976;2023-03-01T09:50:39;101416.84;;;14.18;31.12
76124;BME280;65173;48.066;20.976;2023-03-01T09:53:42;101410.63;;;14.88;30.99
76124;BME280;65173;48.066;20.976;2023-03-01T09:57:19;101402.59;;;16.21;29.04
76124;BME280;65173;48.066;20.976;2023-03-01T10:00:37;101409.31;;;15.97;27.82
76124;BME280;65173;48.066;20.976;2023-03-01T10:03:57;101392.22;;;16.70;27.96
76124;BME280;65173;48.066;20.976;2023-03-01T10:13:46;101373.78;;;17.01;27.68
76124;BME280;65173;48.066;20.976;2023-03-01T10:16:55;101371.94;;;16.43;26.78
76124;BME280;65173;48.066;20.976;2023-03-01T10:20:20;101360.84;;;17.48;26.88
76124;BME280;65173;48.066;20.976;2023-03-01T10:23:24;101351.59;;;16.83;26.83
76124;BME280;65173;48.066;20.976;2023-03-01T10:29:59;101349.00;;;17.41;28.21
76124;BME280;65173;48.066;20.976;2023-03-01T10:33:15;101333.53;;;18.19;26.51
76124;BME280;65173;48.066;20.976;2023-03-01T10:36:20;101333.06;;;17.93;26.57
76124;BME280;65173;48.066;20.976;2023-03-01T10:39:25;101328.69;;;18.25;25.76
76124;BME280;65173;48.066;20.976;2023-03-01T10:42:31;101324.38;;;18.48;26.53
76124;BME280;65173;48.066;20.976;2023-03-01T10:45:38;101317.59;;;17.45;25.13
76124;BME280;65173;48.066;20.976;2023-03-01T10:48:41;101310.56;;;17.64;25.52
76124;BME280;65173;48.066;20.976;2023-03-01T10:51:48;101313.41;;;17.80;26.28
76124;BME280;65173;48.066;20.976;2023-03-01T10:54:57;101296.88;;;17.24;26.42
76124;BME280;65173;48.066;20.976;2023-03-01T10:58:08;101292.53;;;16.99;26.78
76124;BME280;65173;48.066;20.976;2023-03-01T11:04:18;101278.09;;;16.62;26.85
76124;BME280;65173;48.066;20.976;2023-03-01T11:07:20;101278.75;;;16.80;26.67
76124;BME280;65173;48.066;20.976;2023-03-01T11:10:32;101280.69;;;17.12;26.66
76124;BME280;65173;48.066;20.976;2023-03-01T11:13:36;101281.81;;;17.23;26.05
76124;BME280;65173;48.066;20.976;2023-03-01T11:16:42;101263.56;;;16.96;25.11
76124;BME280;65173;48.066;20.976;2023-03-01T11:20:24;101269.59;;;16.30;26.99
76124;BME280;65173;48.066;20.976;2023-03-01T11:23:26;101265.03;;;16.02;26.78
76124;BME280;65173;48.066;20.976;2023-03-01T11:26:31;101258.13;;;15.45;29.39
76124;BME280;65173;48.066;20.976;2023-03-01T11:29:40;101262.88;;;15.48;29.95
76124;BME280;65173;48.066;20.976;2023-03-01T11:39:32;101245.69;;;15.79;26.96
76124;BME280;65173;48.066;20.976;2023-03-01T11:42:43;101236.59;;;16.42;27.07
76124;BME280;65173;48.066;20.976;2023-03-01T11:56:34;101222.13;;;17.46;25.51
76124;BME280;65173;48.066;20.976;2023-03-01T12:00:02;101223.63;;;17.67;25.54
76124;BME280;65173;48.066;20.976;2023-03-01T12:20:41;101200.34;;;17.63;25.73
76124;BME280;65173;48.066;20.976;2023-03-01T12:27:45;101190.13;;;16.33;26.81
76124;BME280;65173;48.066;20.976;2023-03-01T12:34:34;101195.91;;;17.10;26.30
76124;BME280;65173;48.066;20.976;2023-03-01T12:38:31;101190.34;;;17.39;25.91
76124;BME280;65173;48.066;20.976;2023-03-01T12:48:34;101174.25;;;16.40;26.52
76124;BME280;65173;48.066;20.976;2023-03-01T12:51:50;101167.00;;;16.74;26.81
76124;BME280;65173;48.066;20.976;2023-03-01T12:54:56;101167.19;;;17.02;25.18
76124;BME280;65173;48.066;20.976;2023-03-01T13:05:20;101158.34;;;17.86;26.03
76124;BME280;65173;48.066;20.976;2023-03-01T13:08:33;101146.19;;;16.95;25.24
76124;BME280;65173;48.066;20.976;2023-03-01T13:11:42;101140.38;;;17.42;25.02
76124;BME280;65173;48.066;20.976;2023-03-01T13:14:46;101127.09;;;17.61;23.90
76124;BME280;65173;48.066;20.976;2023-03-01T13:17:57;101120.50;;;17.34;24.40
76124;BME280;65173;48.066;20.976;2023-03-01T13:21:02;101118.81;;;17.66;24.90
76124;BME280;65173;48.066;20.976;2023-03-01T13:24:37;101119.81;;;17.25;24.26
76124;BME280;65173;48.066;20.976;2023-03-01T13:27:41;101110.63;;;17.02;23.88
76124;BME280;65173;48.066;20.976;2023-03-01T13:30:48;101107.56;;;17.03;23.99
76124;BME280;65173;48.066;20.976;2023-03-01T13:37:08;101119.66;;;16.19;25.43
76124;BME280;65173;48.066;20.976;2023-03-01T13:43:32;101111.75;;;16.22;25.62
76124;BME280;65173;48.066;20.976;2023-03-01T13:46:36;101115.28;;;15.73;25.87
76124;BME280;65173;48.066;20.976;2023-03-01T13:49:52;101105.72;;;16.05;25.80
76124;BME280;65173;48.066;20.976;2023-03-01T13:53:00;101111.28;;;15.49;25.47
76124;BME280;65173;48.066;20.976;2023-03-01T13:56:17;101112.56;;;15.22;26.13
76124;BME280;65173;48.066;20.976;2023-03-01T13:59:22;101113.84;;;15.46;25.91
76124;BME280;65173;48.066;20.976;2023-03-01T14:02:28;101109.81;;;15.31;26.86
76124;BME280;65173;48.066;20.976;2023-03-01T14:05:32;101117.09;;;15.31;27.02
76124;BME280;65173;48.066;20.976;2023-03-01T14:08:36;101111.69;;;15.01;26.39
76124;BME280;65173;48.066;20.976;2023-03-01T14:15:18;101106.75;;;15.12;26.59
76124;BME280;65173;48.066;20.976;2023-03-01T14:18:31;101099.47;;;15.12;26.52
76124;BME280;65173;48.066;20.976;2023-03-01T14:21:39;101099.66;;;14.61;27.46
76124;BME280;65173;48.066;20.976;2023-03-01T14:24:56;101100.94;;;14.54;27.80
76124;BME280;65173;48.066;20.976;2023-03-01T14:31:36;101099.97;;;14.33;28.12
76124;BME280;65173;48.066;20.976;2023-03-01T14:34:55;101084.72;;;13.99;29.58
76124;BME280;65173;48.066;20.976;2023-03-01T14:37:58;101090.22;;;14.03;28.74
76124;BME280;65173;48.066;20.976;2023-03-01T14:44:23;101093.38;;;13.70;28.69
76124;BME280;65173;48.066;20.976;2023-03-01T14:47:32;101100.63;;;13.61;29.06
76124;BME280;65173;48.066;20.976;2023-03-01T14:50:41;101093.38;;;13.87;29.57
76124;BME280;65173;48.066;20.976;2023-03-01T14:53:45;101101.03;;;13.37;32.72
76124;BME280;65173;48.066;20.976;2023-03-01T14:56:59;101088.06;;;12.91;34.03
76124;BME280;65173;48.066;20.976;2023-03-01T15:00:06;101092.97;;;12.98;34.38
76124;BME280;65173;48.066;20.976;2023-03-01T15:03:14;101087.88;;;12.79;34.36
76124;BME280;65173;48.066;20.976;2023-03-01T15:06:22;101091.84;;;12.59;36.07
76124;BME280;65173;48.066;20.976;2023-03-01T15:09:25;101082.84;;;12.55;35.01
76124;BME280;65173;48.066;20.976;2023-03-01T15:15:35;101084.88;;;12.05;35.70
76124;BME280;65173;48.066;20.976;2023-03-01T15:18:49;101079.63;;;11.64;36.50
76124;BME280;65173;48.066;20.976;2023-03-01T15:21:53;101077.25;;;11.48;37.17
76124;BME280;65173;48.066;20.976;2023-03-01T15:24:56;101089.75;;;11.26;37.51
76124;BME280;65173;48.066;20.976;2023-03-01T15:28:01;101086.19;;;11.17;37.59
76124;BME280;65173;48.066;20.976;2023-03-01T15:31:22;101077.31;;;11.07;37.51
76124;BME280;65173;48.066;20.976;2023-03-01T15:34:30;101078.25;;;10.84;38.30
76124;BME280;65173;48.066;20.976;2023-03-01T15:37:44;101073.94;;;10.88;38.50
76124;BME280;65173;48.066;20.976;2023-03-01T15:40:50;101060.97;;;10.68;38.74
76124;BME280;65173;48.066;20.976;2023-03-01T15:43:54;101067.81;;;10.41;39.65
76124;BME280;65173;48.066;20.976;2023-03-01T15:46:58;101064.44;;;10.17;40.29
76124;BME280;65173;48.066;20.976;2023-03-01T15:50:02;101068.63;;;10.04;41.21
76124;BME280;65173;48.066;20.976;2023-03-01T15:53:11;101072.25;;;9.95;41.63
76124;BME280;65173;48.066;20.976;2023-03-01T15:56:14;101083.84;;;9.66;42.39
76124;BME280;65173;48.066;20.976;2023-03-01T15:59:17;101079.91;;;9.40;43.09
76124;BME280;65173;48.066;20.976;2023-03-01T16:02:22;101089.34;;;9.03;43.31
76124;BME280;65173;48.066;20.976;2023-03-01T16:05:30;101081.78;;;8.92;43.56
76124;BME280;65173;48.066;20.976;2023-03-01T16:08:33;101083.84;;;8.71;44.24
76124;BME280;65173;48.066;20.976;2023-03-01T16:11:36;101073.09;;;8.57;44.65
76124;BME280;65173;48.066;20.976;2023-03-01T16:14:40;101077.66;;;8.47;44.45
76124;BME280;65173;48.066;20.976;2023-03-01T16:17:44;101071.97;;;8.24;45.07
76124;BME280;65173;48.066;20.976;2023-03-01T16:20:56;101079.00;;;8.10;45.11
76124;BME280;65173;48.066;20.976;2023-03-01T16:24:00;101080.75;;;7.86;45.38
76124;BME280;65173;48.066;20.976;2023-03-01T16:27:03;101075.56;;;7.60;44.81
76124;BME280;65173;48.066;20.976;2023-03-01T16:30:06;101075.56;;;7.65;43.85
76124;BME280;65173;48.066;20.976;2023-03-01T16:33:13;101081.22;;;7.49;42.17
76124;BME280;65173;48.066;20.976;2023-03-01T16:36:35;101082.03;;;7.39;42.35
76124;BME280;65173;48.066;20.976;2023-03-01T16:39:39;101082.66;;;7.16;41.14
76124;BME280;65173;48.066;20.976;2023-03-01T16:42:42;101086.13;;;7.01;40.72
76124;BME280;65173;48.066;20.976;2023-03-01T16:45:45;101089.06;;;6.94;39.63
76124;BME280;65173;48.066;20.976;2023-03-01T16:48:49;101096.22;;;6.84;39.27
76124;BME280;65173;48.066;20.976;2023-03-01T16:51:55;101089.59;;;6.81;39.04
76124;BME280;65173;48.066;20.976;2023-03-01T16:54:58;101089.63;;;6.71;38.86
76124;BME280;65173;48.066;20.976;2023-03-01T16:58:01;101088.06;;;6.60;38.84
76124;BME280;65173;48.066;20.976;2023-03-01T17:01:10;101090.19;;;6.53;39.21
76124;BME280;65173;48.066;20.976;2023-03-01T17:04:13;101095.47;;;6.33;40.83
76124;BME280;65173;48.066;20.976;2023-03-01T17:07:16;101097.03;;;6.03;41.77
76124;BME280;65173;48.066;20.976;2023-03-01T17:10:19;101091.44;;;5.95;42.16
76124;BME280;65173;48.066;20.976;2023-03-01T17:13:23;101088.56;;;5.91;41.82
76124;BME280;65173;48.066;20.976;2023-03-01T17:16:26;101089.28;;;5.71;41.86
76124;BME280;65173;48.066;20.976;2023-03-01T17:19:29;101098.66;;;5.42;38.44
76124;BME280;65173;48.066;20.976;2023-03-01T17:22:34;101085.94;;;5.34;34.41
76124;BME280;65173;48.066;20.976;2023-03-01T17:25:42;101090.53;;;5.53;32.70
76124;BME280;65173;48.066;20.976;2023-03-01T17:28:46;101080.00;;;5.69;31.76
76124;BME280;65173;48.066;20.976;2023-03-01T17:31:53;101085.25;;;5.64;31.56
76124;BME280;65173;48.066;20.976;2023-03-01T17:34:58;101084.97;;;5.60;31.42
76124;BME280;65173;48.066;20.976;2023-03-01T17:38:01;101072.56;;;5.66;31.61
76124;BME280;65173;48.066;20.976;2023-03-01T17:41:05;101077.84;;;5.61;31.41
76124;BME280;65173;48.066;20.976;2023-03-01T17:44:08;101082.34;;;5.55;31.73
76124;BME280;65173;48.066;20.976;2023-03-01T17:47:11;101090.53;;;5.53;31.33
76124;BME280;65173;48.066;20.976;2023-03-01T17:50:15;101082.31;;;5.50;31.50
76124;BME280;65173;48.066;20.976;2023-03-01T17:53:18;101083.34;;;5.44;31.72
76124;BME280;65173;48.066;20.976;2023-03-01T17:56:21;101091.25;;;5.39;32.15